Time;durP1;ratioP1;P1;durP2;ratioP2;P2;SDS_P1;SDS_P2;PMS_P1;PMS_P2;Temp;Humidity;BMP_temperature;BMP_pressure;BME280_temperature;BME280_humidity;BME280_pressure;Samples;Min_cycle;Max_cycle;Signal;HPM_P1;HPM_P2
2021/03/11 00:00:48;;;;;;;22.45;15.00;;;6.70;99.90;;;;;;5093767;28;20167;-76
2021/03/11 00:03:17;;;;;;;22.67;14.63;;;6.70;99.90;;;;;;5093160;28;20174;-76
2021/03/11 00:05:43;;;;;;;22.40;15.38;;;6.80;99.90;;;;;;5093306;28;20566;-75
2021/03/11 00:08:09;;;;;;;20.70;13.82;;;6.80;99.90;;;;;;5113192;28;20184;-75
2021/03/11 00:10:35;;;;;;;21.10;15.25;;;6.90;99.90;;;;;;5106357;28;20196;-76
2021/03/11 00:13:01;;;;;;;19.27;13.75;;;6.90;99.90;;;;;;5093188;28;20194;-76
2021/03/11 00:15:27;;;;;;;23.60;13.10;;;6.90;99.90;;;;;;5093259;28;20214;-74
2021/03/11 00:17:53;;;;;;;17.17;12.53;;;7.00;99.90;;;;;;5093402;28;20450;-76
2021/03/11 00:20:22;;;;;;;20.42;12.95;;;6.90;99.90;;;;;;5093126;28;20211;-76
2021/03/11 00:22:49;;;;;;;16.00;11.35;;;7.10;99.90;;;;;;5093392;28;20210;-76
2021/03/11 00:25:16;;;;;;;23.50;13.38;;;7.10;99.90;;;;;;5093044;28;20283;-76
2021/03/11 00:27:43;;;;;;;17.40;12.50;;;7.20;99.90;;;;;;5093235;28;20202;-76
2021/03/11 00:30:10;;;;;;;15.95;11.20;;;;;;;;;;5093269;28;20221;-76
2021/03/11 00:32:35;;;;;;;19.63;12.27;;;7.20;99.90;;;;;;5092809;28;20535;-76
2021/03/11 00:35:01;;;;;;;18.60;11.93;;;7.30;99.90;;;;;;5092561;28;20199;-76
2021/03/11 00:37:27;;;;;;;18.03;11.57;;;7.30;99.90;;;;;;5092910;28;20188;-76
2021/03/11 00:39:53;;;;;;;22.47;10.23;;;7.30;99.90;;;;;;5093017;28;20448;-76
2021/03/11 00:42:19;;;;;;;15.50;10.70;;;7.20;99.90;;;;;;5091909;28;20424;-76
2021/03/11 00:44:44;;;;;;;19.50;11.03;;;7.30;99.90;;;;;;5092471;28;20652;-76
2021/03/11 00:47:10;;;;;;;14.90;10.80;;;7.50;99.90;;;;;;5091696;28;20923;-77
2021/03/11 00:49:36;;;;;;;17.43;11.67;;;7.40;99.90;;;;;;5092933;28;20334;-76
2021/03/11 00:52:03;;;;;;;15.20;10.67;;;7.50;99.90;;;;;;5092753;28;20421;-76
2021/03/11 00:54:28;;;;;;;16.42;9.90;;;7.50;99.90;;;;;;5092529;28;20237;-76
2021/03/11 00:56:54;;;;;;;14.40;10.50;;;7.50;99.90;;;;;;5092771;28;20700;-76
2021/03/11 00:59:20;;;;;;;15.93;10.37;;;7.50;99.90;;;;;;5091566;28;20288;-76
2021/03/11 01:01:46;;;;;;;17.08;10.70;;;7.60;99.90;;;;;;5092806;28;20402;-76
2021/03/11 01:04:12;;;;;;;11.30;9.20;;;7.50;99.90;;;;;;5092544;28;20686;-76
2021/03/11 01:06:38;;;;;;;13.30;9.18;;;7.50;99.90;;;;;;5091449;28;20710;-75
2021/03/11 01:09:04;;;;;;;13.33;9.23;;;7.60;99.90;;;;;;5090699;28;20180;-76
2021/03/11 01:11:30;;;;;;;17.07;9.30;;;7.50;99.90;;;;;;5072361;28;20439;-75
2021/03/11 01:13:55;;;;;;;12.57;8.90;;;7.60;99.90;;;;;;5072299;28;20923;-76
2021/03/11 01:16:21;;;;;;;9.97;7.47;;;7.50;99.90;;;;;;5072396;28;20184;-75
2021/03/11 01:18:47;;;;;;;12.43;7.33;;;7.70;99.90;;;;;;5072306;28;20270;-76
2021/03/11 01:21:12;;;;;;;10.80;7.43;;;7.60;99.90;;;;;;5072386;28;20182;-76
2021/03/11 01:23:38;;;;;;;9.73;6.90;;;7.60;99.90;;;;;;5070939;28;20193;-75
2021/03/11 01:26:04;;;;;;;6.50;5.57;;;7.70;99.90;;;;;;5072268;28;20173;-76
2021/03/11 01:28:29;;;;;;;9.03;6.87;;;7.70;99.90;;;;;;5072455;28;20181;-76
2021/03/11 01:30:55;;;;;;;9.20;6.30;;;7.70;99.90;;;;;;5072265;28;20189;-75
2021/03/11 01:33:20;;;;;;;5.83;4.80;;;7.70;99.90;;;;;;5071822;28;20192;-76
2021/03/11 01:35:46;;;;;;;6.10;3.83;;;7.80;99.90;;;;;;5054429;28;20238;-75
2021/03/11 01:38:12;;;;;;;5.13;3.33;;;7.80;99.90;;;;;;5072183;28;20207;-76
2021/03/11 01:40:37;;;;;;;5.67;4.23;;;7.80;99.90;;;;;;5071083;28;20653;-76
2021/03/11 01:43:03;;;;;;;4.07;3.40;;;7.90;99.90;;;;;;5070647;28;20260;-76
2021/03/11 01:45:29;;;;;;;4.53;3.60;;;7.80;99.90;;;;;;5073242;28;20205;-76
2021/03/11 01:47:55;;;;;;;5.80;4.50;;;7.80;99.90;;;;;;5076086;28;20176;-75
2021/03/11 01:50:21;;;;;;;4.13;2.90;;;;;;;;;;5075915;28;20419;-75
2021/03/11 01:52:47;;;;;;;4.90;4.13;;;;;;;;;;5075884;28;20435;-76
2021/03/11 01:55:14;;;;;;;7.20;3.63;;;;;;;;;;5075418;28;20617;-76
2021/03/11 01:57:40;;;;;;;4.28;3.78;;;;;;;;;;5075511;28;20212;-76
2021/03/11 02:00:08;;;;;;;3.95;3.30;;;;;;;;;;5057742;28;20177;-76
2021/03/11 02:02:35;;;;;;;4.53;3.10;;;;;;;;;;5075877;28;20254;-76
2021/03/11 02:05:01;;;;;;;5.05;3.53;;;;;;;;;;5075093;28;20207;-76
2021/03/11 02:07:27;;;;;;;4.65;2.95;;;;;;;;;;5075510;28;20615;-76
2021/03/11 02:09:53;;;;;;;4.53;3.10;;;;;;;;;;5075486;28;20282;-76
2021/03/11 02:12:26;;;;;;;4.43;3.37;;;;;;;;;;5075327;28;20503;-76
2021/03/11 02:14:55;;;;;;;5.82;4.00;;;;;;;;;;5075330;28;20561;-76
2021/03/11 02:17:24;;;;;;;5.47;3.97;;;;;;;;;;5075185;28;20627;-76
2021/03/11 02:20:08;;;;;;;4.60;3.33;;;;;;;;;;5075374;28;20216;-76
2021/03/11 02:22:53;;;;;;;4.55;2.75;;;;;;;;;;5057287;28;20609;-76
2021/03/11 02:25:25;;;;;;;3.90;3.35;;;;;;;;;;5074926;28;20530;-76
2021/03/11 02:28:03;;;;;;;4.75;3.45;;;;;;;;;;5057272;28;20597;-76
2021/03/11 02:30:30;;;;;;;4.55;3.30;;;;;;;;;;5075260;28;20169;-76
2021/03/11 02:32:57;;;;;;;6.32;3.22;;;;;;;;;;5075061;28;20569;-76
2021/03/11 02:35:23;;;;;;;3.78;3.17;;;;;;;;;;5074526;28;20223;-76
2021/03/11 02:37:50;;;;;;;4.60;3.25;;;;;;;;;;5074989;28;20255;-76
2021/03/11 02:40:19;;;;;;;5.05;3.55;;;;;;;;;;5075011;28;20218;-75
2021/03/11 02:42:45;;;;;;;3.60;2.97;;;;;;;;;;5074922;28;20531;-76
2021/03/11 02:45:13;;;;;;;4.53;3.10;;;;;;;;;;5074517;28;20250;-76
2021/03/11 02:47:41;;;;;;;4.63;3.40;;;;;;;;;;5074650;28;20230;-76
2021/03/11 02:50:07;;;;;;;4.13;3.25;;;;;;;;;;5074639;28;20230;-75
2021/03/11 02:52:34;;;;;;;4.05;3.03;;;;;;;;;;5074747;28;20176;-76
2021/03/11 02:55:01;;;;;;;4.20;2.83;;;;;;;;;;5074359;28;20193;-76
2021/03/11 02:57:28;;;;;;;7.10;3.53;;;;;;;;;;5074566;28;20200;-75
2021/03/11 02:59:54;;;;;;;6.13;3.63;;;;;;;;;;5056792;28;20173;-76
2021/03/11 03:02:21;;;;;;;2.97;2.70;;;;;;;;;;5074543;28;20640;-76
2021/03/11 03:04:49;;;;;;;3.80;3.17;;;;;;;;;;5073990;28;20243;-76
2021/03/11 03:07:16;;;;;;;3.75;3.25;;;;;;;;;;5074672;28;20229;-76
2021/03/11 03:09:44;;;;;;;4.03;2.85;;;;;;;;;;5074602;28;20181;-75
2021/03/11 03:12:10;;;;;;;3.55;3.15;;;;;;;;;;5074313;28;20184;-76
2021/03/11 03:14:37;;;;;;;2.80;2.60;;;;;;;;;;5073920;28;20545;-76
2021/03/11 03:17:03;;;;;;;3.95;3.30;;;;;;;;;;5074305;28;20251;-75
2021/03/11 03:19:30;;;;;;;3.35;2.88;;;;;;;;;;5074178;28;20253;-76
2021/03/11 03:21:56;;;;;;;4.43;3.58;;;;;;;;;;5056333;28;20181;-76
2021/03/11 03:24:22;;;;;;;4.63;2.80;;;;;;;;;;5073736;28;20197;-76
2021/03/11 03:26:48;;;;;;;3.72;3.10;;;;;;;;;;5056446;28;20188;-76
2021/03/11 03:29:14;;;;;;;4.70;3.40;;;;;;;;;;5056085;28;20184;-76
2021/03/11 03:31:40;;;;;;;3.40;2.97;;;;;;;;;;5073988;28;20765;-76
2021/03/11 03:34:06;;;;;;;5.50;3.33;;;;;;;;;;5073504;28;20211;-76
2021/03/11 03:36:32;;;;;;;7.93;3.20;;;;;;;;;;5073767;28;20177;-77
2021/03/11 03:38:58;;;;;;;3.83;3.23;;;;;;;;;;5073804;28;20447;-76
2021/03/11 03:41:25;;;;;;;3.22;2.83;;;;;;;;;;5055922;28;20458;-75
2021/03/11 03:43:52;;;;;;;4.85;3.28;;;;;;;;;;5073178;28;20192;-76
2021/03/11 03:46:20;;;;;;;4.20;3.08;;;;;;;;;;5073589;28;20228;-76
2021/03/11 03:48:48;;;;;;;5.97;3.50;;;;;;;;;;5073637;28;20191;-76
2021/03/11 03:51:16;;;;;;;4.85;3.95;;;;;;;;;;5073615;28;20181;-76
2021/03/11 03:53:43;;;;;;;3.50;3.10;;;;;;;;;;5073223;28;20235;-76
2021/03/11 03:56:16;;;;;;;6.45;4.28;;;;;;;;;;5073390;28;20655;-76
2021/03/11 03:58:43;;;;;;;6.03;4.38;;;;;;;;;;5073368;28;20212;-76
2021/03/11 04:01:09;;;;;;;4.43;3.72;;;;;;;;;;5056006;28;20175;-76
2021/03/11 04:03:35;;;;;;;4.05;3.22;;;;;;;;;;5072959;28;20200;-76
2021/03/11 04:06:01;;;;;;;4.03;3.63;;;;;;;;;;5073176;28;20230;-77
2021/03/11 04:08:28;;;;;;;5.67;3.70;;;;;;;;;;5054945;28;20544;-76
2021/03/11 04:10:54;;;;;;;3.60;3.30;;;;;;;;;;5073231;28;20450;-76
2021/03/11 04:13:21;;;;;;;4.43;3.22;;;;;;;;;;5055261;28;20186;-75
2021/03/11 04:15:47;;;;;;;3.83;2.90;;;;;;;;;;5073252;28;20183;-76
2021/03/11 04:18:13;;;;;;;4.28;3.22;;;;;;;;;;5072890;28;20565;-74
2021/03/11 04:20:40;;;;;;;3.90;3.13;;;;;;;;;;5055122;28;20645;-76
2021/03/11 04:23:06;;;;;;;4.13;3.00;;;;;;;;;;5072623;28;20197;-76
2021/03/11 04:25:32;;;;;;;3.95;3.20;;;;;;;;;;5072962;28;20192;-75
2021/03/11 04:27:58;;;;;;;4.65;2.80;;;;;;;;;;5072947;28;20259;-76
2021/03/11 04:30:25;;;;;;;4.55;3.10;;;;;;;;;;5072917;28;20208;-76
2021/03/11 04:32:51;;;;;;;2.70;2.28;;;;;;;;;;5072998;28;20180;-76
2021/03/11 04:35:17;;;;;;;2.83;2.53;;;;;;;;;;5072604;28;20205;-76
2021/03/11 04:37:44;;;;;;;3.35;2.58;;;;;;;;;;5072927;28;20208;-75
2021/03/11 04:40:10;;;;;;;2.65;2.25;;;;;;;;;;5058004;28;20279;-76
2021/03/11 04:42:37;;;;;;;3.83;3.33;;;;;;;;;;5072876;28;20196;-76
2021/03/11 04:45:05;;;;;;;2.45;2.22;;;;;;;;;;5072353;28;20193;-76
2021/03/11 04:47:31;;;;;;;3.22;2.40;;;;;;;;;;5072801;28;20632;-76
2021/03/11 04:50:00;;;;;;;2.50;2.30;;;;;;;;;;5055039;28;20183;-75
2021/03/11 04:52:26;;;;;;;2.55;1.92;;;;;;;;;;5072637;28;20559;-76
2021/03/11 04:54:53;;;;;;;2.45;1.98;;;;;;;;;;5072316;28;20275;-76
2021/03/11 04:57:19;;;;;;;3.00;2.25;;;;;;;;;;5072646;28;20542;-76
2021/03/11 04:59:45;;;;;;;3.28;2.28;;;;;;;;;;5072695;28;20173;-76
2021/03/11 05:02:11;;;;;;;2.65;2.45;;;;;;;;;;5054710;28;20188;-76
2021/03/11 05:04:37;;;;;;;3.40;2.25;;;;;;;;;;5072087;28;20193;-76
2021/03/11 05:07:03;;;;;;;3.38;2.50;;;;;;;;;;5072686;28;20511;-76
2021/03/11 05:09:29;;;;;;;3.00;2.65;;;;;;;;;;5072483;28;20181;-76
2021/03/11 05:11:55;;;;;;;2.40;2.10;;;;;;;;;;5054432;28;20287;-76
2021/03/11 05:14:21;;;;;;;3.20;2.55;;;;;;;;;;5072173;28;20446;-76
2021/03/11 05:16:47;;;;;;;4.13;2.45;;;;;;;;;;5072512;28;20242;-76
2021/03/11 05:19:13;;;;;;;3.40;2.93;;;;;;;;;;5072904;28;20564;-76
2021/03/11 05:21:39;;;;;;;3.33;3.03;;;;;;;;;;5076464;28;20493;-76
2021/03/11 05:24:05;;;;;;;3.47;2.63;;;;;;;;;;5075962;28;20568;-76
2021/03/11 05:26:31;;;;;;;3.35;3.05;;;;;;;;;;5076353;28;20181;-76
2021/03/11 05:28:57;;;;;;;3.00;2.40;;;;;;;;;;5076295;28;20200;-76
2021/03/11 05:31:23;;;;;;;3.43;2.73;;;;;;;;;;5076407;28;20670;-76
2021/03/11 05:33:49;;;;;;;3.73;3.13;;;;;;;;;;5075856;28;20437;-76
2021/03/11 05:36:15;;;;;;;3.70;3.00;;;;;;;;;;5076187;28;20418;-76
2021/03/11 05:38:45;;;;;;;3.80;3.40;;;;;;;;;;5075906;28;20938;-76
2021/03/11 05:41:12;;;;;;;3.53;2.67;;;;;;;;;;5058159;28;20415;-76
2021/03/11 05:43:38;;;;;;;4.85;3.60;;;;;;;;;;5075512;28;20189;-76
2021/03/11 05:46:04;;;;;;;3.97;3.50;;;;;;;;;;5076027;28;20540;-76
2021/03/11 05:48:33;;;;;;;3.40;3.10;;;;;;;;;;5075928;28;20612;-76
2021/03/11 05:50:59;;;;;;;5.55;3.80;;;;;;;;;;5075739;28;20187;-76
2021/03/11 05:53:25;;;;;;;4.00;3.08;;;;;;;;;;5057846;28;20196;-75
2021/03/11 05:55:51;;;;;;;3.80;2.90;;;;;;;;;;5075844;28;20192;-76
2021/03/11 05:58:20;;;;;;;5.85;3.55;;;;;;;;;;5057652;28;20455;-76
2021/03/11 06:00:46;;;;;;;3.97;3.40;;;;;;;;;;5075478;28;20177;-75
2021/03/11 06:03:12;;;;;;;3.25;2.60;;;;;;;;;;5075308;28;20637;-75
2021/03/11 06:05:39;;;;;;;4.40;3.60;;;;;;;;;;5075720;28;20219;-76
2021/03/11 06:08:07;;;;;;;3.67;3.08;;;;;;;;;;5075705;28;20200;-75
2021/03/11 06:10:33;;;;;;;4.97;3.60;;;;;;;;;;5076238;28;20177;-76
2021/03/11 06:12:59;;;;;;;5.35;3.40;;;;;;;;;;5075185;28;20649;-75
2021/03/11 06:15:38;;;;;;;4.75;3.45;;;;;;;;;;5075316;28;20242;-76
2021/03/11 06:18:07;;;;;;;5.28;3.28;;;;;;;;;;5075324;28;20617;-76
2021/03/11 06:20:34;;;;;;;5.07;3.08;;;;;;;;;;5075402;28;20188;-76
2021/03/11 06:23:00;;;;;;;3.55;3.17;;;;;;;;;;5074900;28;20200;-76
2021/03/11 06:25:27;;;;;;;3.92;2.90;;;;;;;;;;5075196;28;20250;-76
2021/03/11 06:27:53;;;;;;;3.97;3.17;;;;;;;;;;5075145;28;20177;-76
2021/03/11 06:30:30;;;;;;;3.20;2.90;;;;;;;;;;5074262;28;20177;-75
2021/03/11 06:32:56;;;;;;;4.07;3.22;;;;;;;;;;5072786;28;20418;-76
2021/03/11 06:35:22;;;;;;;4.63;2.25;;;;;;;;;;5074122;28;20192;-75
2021/03/11 06:37:48;;;;;;;3.28;2.63;;;;;;;;;;5074457;28;20205;-75
2021/03/11 06:40:21;;;;;;;3.58;2.75;;;;;;;;;;5074965;28;20181;-75
2021/03/11 06:42:48;;;;;;;4.47;3.15;;;;;;;;;;5075041;28;20180;-75
2021/03/11 06:45:20;;;;;;;4.40;3.35;;;;;;;;;;5074372;28;20549;-78
2021/03/11 06:47:48;;;;;;;4.88;2.30;;;;;;;;;;5074821;28;20546;-77
2021/03/11 06:50:14;;;;;;;3.28;2.92;;;;;;;;;;5074784;28;20173;-75
2021/03/11 06:52:40;;;;;;;3.25;2.28;;;;;;;;;;5074800;28;20180;-75
2021/03/11 06:55:09;;;;;;;2.30;2.10;;;;;;;;;;5073961;28;20245;-75
2021/03/11 06:57:36;;;;;;;2.50;2.30;;;;;;;;;;5074593;28;20180;-76
2021/03/11 07:00:18;;;;;;;2.83;2.47;;;;;;;;;;5074645;28;20177;-75
2021/03/11 07:02:50;;;;;;;2.97;2.15;;;;;;;;;;5074775;28;20706;-75
2021/03/11 07:05:16;;;;;;;2.50;1.67;;;;;;;;;;5073958;28;20200;-76
2021/03/11 07:07:42;;;;;;;2.65;1.60;;;;;;;;;;5074647;28;20184;-76
2021/03/11 07:10:21;;;;;;;3.65;2.20;;;;;;;;;;5056362;28;20193;-76
2021/03/11 07:12:54;;;;;;;1.40;1.30;;;;;;;;;;5074347;28;20188;-75
2021/03/11 07:15:21;;;;;;;3.00;2.60;;;;;;;;;;5073958;28;20203;-76
2021/03/11 07:17:47;;;;;;;2.45;2.08;;;;;;;;;;5074013;28;20193;-76
2021/03/11 07:20:19;;;;;;;2.60;2.40;;;;;;;;;;5074167;28;20166;-76
2021/03/11 07:23:02;;;;;;;6.00;2.30;;;;;;;;;;5074120;28;20248;-76
2021/03/11 07:25:33;;;;;;;4.32;2.40;;;;;;;;;;5073960;28;20600;-76
2021/03/11 07:28:00;;;;;;;2.97;2.63;;;;;;;;;;5073954;28;20181;-76
2021/03/11 07:30:26;;;;;;;2.83;2.40;;;;;;;;;;5074077;28;20218;-77
2021/03/11 07:33:03;;;;;;;2.22;2.03;;;;;;;;;;5056151;28;20652;-77
2021/03/11 07:35:30;;;;;;;3.10;2.63;;;;;;;;;;5073843;28;20283;-76
2021/03/11 07:37:57;;;;;;;3.30;3.00;;;;;;;;;;5073764;28;20664;-77
2021/03/11 07:40:24;;;;;;;5.95;2.80;;;;;;;;;;5073716;28;20177;-76
2021/03/11 07:42:51;;;;;;;3.50;2.70;;;;;;;;;;5072921;28;20230;-76
2021/03/11 07:45:17;;;;;;;3.25;2.47;;;;;;;;;;5073259;28;20198;-76
2021/03/11 07:47:43;;;;;;;3.63;2.60;;;;;;;;;;5073479;28;20184;-77
2021/03/11 07:50:11;;;;;;;3.50;2.28;;;;;;;;;;5073622;28;20191;-76
2021/03/11 07:52:38;;;;;;;2.60;2.00;;;;;;;;;;5073588;28;20165;-76
2021/03/11 07:55:05;;;;;;;3.97;2.92;;;;;;;;;;5073093;28;20193;-77
2021/03/11 07:57:31;;;;;;;3.70;2.65;;;;;;;;;;5055318;28;20271;-77
2021/03/11 07:59:58;;;;;;;2.88;2.67;;;;;;;;;;5073309;28;20536;-77
2021/03/11 08:02:24;;;;;;;4.20;2.33;;;;;;;;;;5073384;28;20239;-74
2021/03/11 08:04:50;;;;;;;4.55;2.70;;;;;;;;;;5072903;28;20715;-77
2021/03/11 08:07:22;;;;;;;4.50;2.72;;;;;;;;;;5073364;28;20181;-76
2021/03/11 08:09:52;;;;;;;6.47;2.80;;;;;;;;;;5073185;28;20516;-77
2021/03/11 08:12:25;;;;;;;2.70;2.15;;;;;;;;;;5073096;28;20224;-76
2021/03/11 08:14:51;;;;;;;6.30;2.58;;;;;;;;;;5072797;28;20196;-75
2021/03/11 08:17:35;;;;;;;3.35;2.30;;;;;;;;;;5073151;28;20184;-76
2021/03/11 08:20:02;;;;;;;4.35;2.70;;;;;;;;;;5072960;28;20691;-76
2021/03/11 08:22:47;;;;;;;5.30;3.63;;;;;;;;;;5055249;28;20179;-76
2021/03/11 08:25:25;;;;;;;10.52;6.05;;;;;;;;;;5072642;28;20192;-76
2021/03/11 08:27:51;;;;;;;7.90;7.05;;;;;;;;;;5055130;28;20173;-76
2021/03/11 08:30:36;;;;;;;8.88;5.85;;;;;;;;;;5072749;28;20169;-76
2021/03/11 08:33:03;;;;;;;7.65;6.80;;;;;;;;;;5072645;28;20173;-75
2021/03/11 08:35:29;;;;;;;7.43;6.57;;;;;;;;;;5072883;28;20276;-75
2021/03/11 08:37:55;;;;;;;4.10;3.58;;;;;;;;;;5072718;28;20270;-76
2021/03/11 08:40:42;;;;;;;8.30;7.10;;;;;;;;;;5072805;28;20217;-75
2021/03/11 08:43:08;;;;;;;3.63;3.20;;;;;;;;;;5072445;28;20542;-76
2021/03/11 08:45:38;;;;;;;4.25;3.85;;;;;;;;;;5072783;28;20509;-76
2021/03/11 08:48:16;;;;;;;5.50;3.78;;;;;;;;;;5072639;28;20176;-77
2021/03/11 08:50:42;;;;;;;3.33;2.92;;;;;;;;;;5072564;28;20535;-76
2021/03/11 08:53:09;;;;;;;12.15;8.00;;;;;;;;;;5072068;28;20173;-75
2021/03/11 08:55:38;;;;;;;12.20;8.10;;;;;;;;;;5072667;28;20263;-75
2021/03/11 08:58:05;;;;;;;12.95;9.45;;;;;;;;;;5072553;28;20196;-75
2021/03/11 09:00:50;;;;;;;10.20;7.65;;;;;;;;;;5072404;28;20217;-74
2021/03/11 09:03:36;;;;;;;5.35;4.78;;;;;;;;;;5071957;28;20638;-74
2021/03/11 09:06:02;;;;;;;5.40;4.88;;;;;;;;;;5072442;28;20165;-75
2021/03/11 09:08:28;;;;;;;7.03;5.57;;;;;;;;;;5054692;28;20259;-74
2021/03/11 09:11:06;;;;;;;3.67;3.30;;;;;;;;;;5072254;28;20188;-75
2021/03/11 09:13:32;;;;;;;4.68;3.05;;;;;;;;;;5072054;28;20271;-74
2021/03/11 09:15:58;;;;;;;2.20;2.00;;;;;;;;;;5072412;28;20911;-73
2021/03/11 09:18:25;;;;;;;2.90;2.60;;;;;;;;;;5072249;28;20818;-74
2021/03/11 09:20:54;;;;;;;3.63;2.20;;;;;;;;;;5072319;28;20197;-75
2021/03/11 09:23:20;;;;;;;19.67;2.13;;;;;;;;;;5053962;28;20189;-76
2021/03/11 09:25:46;;;;;;;11.98;3.35;;;;;;;;;;5072511;28;20166;-75
2021/03/11 09:28:14;;;;;;;13.10;3.33;;;;;;;;;;5054497;28;20181;-77
2021/03/11 09:30:41;;;;;;;9.90;2.85;;;;;;;;;;5054426;28;20181;-76
2021/03/11 09:33:18;;;;;;;6.35;2.10;;;;;;;;;;5072229;28;20578;-76
2021/03/11 09:35:44;;;;;;;13.65;2.50;;;;;;;;;;5054571;28;20272;-76
2021/03/11 09:38:14;;;;;;;5.35;1.60;;;;;;;;;;5054112;28;20240;-76
2021/03/11 09:40:40;;;;;;;11.18;2.35;;;;;;;;;;5054172;28;20233;-76
2021/03/11 09:43:15;;;;;;;9.77;2.70;;;;;;;;;;5053947;28;20180;-75
2021/03/11 09:45:48;;;;;;;11.57;2.10;;;;;;;;;;5054255;28;20411;-76
2021/03/11 09:48:16;;;;;;;4.85;2.10;;;;;;;;;;5071881;28;20172;-75
2021/03/11 09:50:50;;;;;;;9.77;2.30;;;;;;;;;;5071983;28;20183;-76
2021/03/11 09:53:17;;;;;;;10.27;2.33;;;;;;;;;;5071886;28;20177;-75
2021/03/11 09:55:43;;;;;;;7.15;1.90;;;;;;;;;;5072054;28;20233;-75
2021/03/11 09:58:16;;;;;;;7.07;1.65;;;;;;;;;;5053919;28;20676;-76
2021/03/11 10:00:42;;;;;;;13.77;2.38;;;;;;;;;;5071765;28;20172;-77
2021/03/11 10:03:15;;;;;;;7.97;2.13;;;;;;;;;;5053582;28;20181;-76
2021/03/11 10:05:42;;;;;;;7.50;2.20;;;;;;;;;;5073172;28;20181;-77
2021/03/11 10:08:08;;;;;;;3.23;1.40;;;;;;;;;;5075504;28;20411;-75
2021/03/11 10:10:34;;;;;;;8.63;2.50;;;;;;;;;;5040998;28;20425;-76
2021/03/11 10:13:00;;;;;;;5.43;2.40;;;;;;;;;;5074939;28;20438;-75
2021/03/11 10:15:26;;;;;;;5.53;1.77;;;;;;;;;;5075476;28;20446;-75
2021/03/11 10:18:08;;;;;;;5.03;1.70;;;;;;;;;;5075482;28;20939;-73
2021/03/11 10:20:34;;;;;;;6.10;1.83;;;;;;;;;;5075230;28;20505;-76
2021/03/11 10:23:20;;;;;;;8.20;1.83;;;;;;;;;;5074888;28;20415;-77
2021/03/11 10:25:46;;;;;;;2.77;1.23;;;;;;;;;;5075148;28;20426;-75
2021/03/11 10:28:13;;;;;;;6.33;1.57;;;;;;;;;;5075224;28;20411;-77
2021/03/11 10:30:40;;;;;;;6.37;1.73;;;;;;;;;;5075135;28;20415;-75
2021/03/11 10:33:06;;;;;;;5.03;1.53;;;;;;;;;;5074766;28;20419;-75
2021/03/11 10:35:39;;;;;;;4.17;1.67;;;;;;;;;;5074942;28;20423;-74
2021/03/11 10:38:30;;;;;;;3.77;1.80;;;;;;;;;;5074994;28;20446;-75
2021/03/11 10:41:10;;;;;;;10.20;1.60;;;;;;;;;;5074972;28;20400;-75
2021/03/11 10:43:37;;;;;;;4.03;1.60;;;;;;;;;;5056530;28;20417;-75
2021/03/11 10:46:03;;;;;;;5.70;1.27;;;;;;;;;;5074761;28;20410;-76
2021/03/11 10:48:29;;;;;;;7.10;1.63;;;;;;;;;;5074694;28;20411;-76
2021/03/11 10:50:55;;;;;;;3.23;1.30;;;;;;;;;;5056540;28;20415;-74
2021/03/11 10:53:36;;;;;;;8.40;3.33;;;;;;;;;;5074294;28;20389;-75
2021/03/11 10:56:06;;;;;;;6.00;1.70;;;;;;;;;;5074859;28;20741;-74
2021/03/11 10:58:32;;;;;;;4.70;1.77;;;;;;;;;;5074529;28;20505;-74
2021/03/11 11:01:17;;;;;;;3.00;1.60;;;;;;;;;;5056601;28;20398;-76
2021/03/11 11:03:45;;;;;;;11.30;2.30;;;;;;;;;;5074230;28;20427;-75
2021/03/11 11:06:11;;;;;;;11.93;2.23;;;;;;;;;;5056719;28;20412;-77
2021/03/11 11:08:42;;;;;;;8.30;2.03;;;;;;;;;;5074631;28;20415;-76
2021/03/11 11:11:08;;;;;;;6.27;1.40;;;;;;;;;;5074270;28;20480;-74
2021/03/11 11:13:34;;;;;;;6.83;2.10;;;;;;;;;;5073708;28;20443;-74
2021/03/11 11:16:00;;;;;;;7.80;2.63;;;;;;;;;;5074446;28;20415;-74
2021/03/11 11:18:26;;;;;;;5.10;1.60;;;;;;;;;;5073941;28;20899;-75
2021/03/11 11:20:52;;;;;;;7.67;2.03;;;;;;;;;;5073706;28;20411;-75
2021/03/11 11:23:18;;;;;;;5.90;1.70;;;;;;;;;;5073063;28;20502;-76
2021/03/11 11:25:44;;;;;;;5.93;2.17;;;;;;;;;;5073581;28;20855;-75
2021/03/11 11:28:10;;;;;;;4.70;1.83;;;;;;;;;;5055510;28;20401;-77
2021/03/11 11:30:36;;;;;;;4.90;1.93;;;14.90;99.90;;;;;;5073277;28;20411;-76
2021/03/11 11:33:02;;;;;;;9.33;3.10;;;15.00;99.90;;;;;;5072925;28;20946;-74
2021/03/11 11:35:27;;;;;;;11.10;2.37;;;15.00;99.90;;;;;;5073102;28;20272;-75
2021/03/11 11:37:53;;;;;;;8.20;1.60;;;15.00;99.90;;;;;;5055217;28;20204;-76
2021/03/11 11:40:20;;;;;;;5.80;1.80;;;15.20;99.90;;;;;;5073326;28;20570;-76
2021/03/11 11:42:46;;;;;;;8.40;2.83;;;15.20;99.90;;;;;;5073143;28;20260;-74
2021/03/11 11:45:12;;;;;;;11.73;2.17;;;;;;;;;;5072610;28;20435;-76
2021/03/11 11:47:38;;;;;;;10.27;2.07;;;15.10;99.90;;;;;;5072939;28;20399;-75
2021/03/11 11:50:09;;;;;;;7.03;1.90;;;15.20;99.90;;;;;;5073148;28;20382;-76
2021/03/11 11:52:36;;;;;;;7.43;2.13;;;14.80;99.90;;;;;;5073068;28;20465;-78
2021/03/11 11:55:02;;;;;;;26.67;4.03;;;14.80;99.90;;;;;;5072642;28;20417;-75
2021/03/11 11:57:28;;;;;;;13.60;2.47;;;14.50;99.90;;;;;;5072853;28;20415;-76
2021/03/11 11:59:54;;;;;;;8.53;3.13;;;;;;;;;;5056330;28;20951;-75
2021/03/11 12:02:19;;;;;;;7.03;2.33;;;14.70;99.90;;;;;;5055633;28;20192;-75
2021/03/11 12:04:45;;;;;;;8.00;3.10;;;;;;;;;;5073174;28;20435;-76
2021/03/11 12:07:11;;;;;;;14.73;3.00;;;14.90;99.90;;;;;;5073717;28;20169;-73
2021/03/11 12:09:37;;;;;;;10.40;2.50;;;14.80;99.90;;;;;;5073364;28;20426;-76
2021/03/11 12:12:03;;;;;;;8.53;1.87;;;;;;;;;;5073692;28;20614;-75
2021/03/11 12:14:32;;;;;;;10.27;2.83;;;14.40;99.90;;;;;;5073244;28;20759;-76
2021/03/11 12:16:57;;;;;;;13.13;2.40;;;14.20;99.90;;;;;;5073187;28;20453;-75
2021/03/11 12:19:23;;;;;;;24.70;4.03;;;;;;;;;;5072980;28;20517;-76
2021/03/11 12:21:49;;;;;;;15.57;3.27;;;;;;;;;;5073229;28;20180;-76
2021/03/11 12:24:16;;;;;;;18.53;3.37;;;;;;;;;;5072858;28;20561;-75
2021/03/11 12:26:41;;;;;;;31.07;4.20;;;;;;;;;;5073139;28;20414;-76
2021/03/11 12:29:07;;;;;;;11.93;3.00;;;;;;;;;;5072653;28;20403;-76
2021/03/11 12:31:33;;;;;;;10.40;2.40;;;;;;;;;;5072971;28;20415;-78
2021/03/11 12:34:00;;;;;;;14.93;2.07;;;;;;;;;;5072647;28;20946;-75
2021/03/11 12:36:26;;;;;;;11.33;2.20;;;;;;;;;;5073095;28;20826;-75
2021/03/11 12:38:53;;;;;;;11.03;2.10;;;;;;;;;;5073636;28;20443;-76
2021/03/11 12:41:20;;;;;;;10.47;2.53;;;;;;;;;;5073544;28;20415;-75
2021/03/11 12:43:46;;;;;;;9.30;1.60;;;;;;;;;;5072753;28;20432;-76
2021/03/11 12:46:12;;;;;;;17.13;2.50;;;;;;;;;;5073266;28;20419;-76
2021/03/11 12:48:38;;;;;;;9.80;1.80;;;;;;;;;;5073158;28;20389;-75
2021/03/11 12:51:05;;;;;;;12.33;2.27;;;;;;;;;;5055042;28;20831;-75
2021/03/11 12:53:31;;;;;;;17.70;2.60;;;;;;;;;;5037832;28;20466;-75
2021/03/11 12:55:56;;;;;;;9.33;2.43;;;;;;;;;;5054659;28;20397;-75
2021/03/11 12:58:22;;;;;;;12.27;3.57;;;;;;;;;;5055047;28;20455;-75
2021/03/11 13:00:50;;;;;;;12.23;2.40;;;;;;;;;;5073063;28;20490;-75
2021/03/11 13:03:16;;;;;;;13.63;2.80;;;;;;;;;;5055027;28;20390;-76
2021/03/11 13:05:43;;;;;;;10.63;3.07;;;;;;;;;;5055340;28;20465;-75
2021/03/11 13:08:09;;;;;;;14.07;2.93;;;;;;;;;;5072578;28;20415;-76
2021/03/11 13:10:36;;;;;;;13.73;3.67;;;;;;;;;;5072402;28;20415;-76
2021/03/11 13:13:03;;;;;;;13.67;3.20;;;;;;;;;;5072137;28;20871;-75
2021/03/11 13:15:29;;;;;;;8.70;2.63;;;;;;;;;;5072242;28;20514;-74
2021/03/11 13:17:55;;;;;;;21.60;2.83;;;;;;;;;;5054520;28;20455;-74
2021/03/11 13:20:21;;;;;;;12.63;3.10;;;;;;;;;;5072923;28;20962;-75
2021/03/11 13:22:48;;;;;;;15.23;2.70;;;;;;;;;;5072609;28;20494;-76
2021/03/11 13:25:18;;;;;;;22.20;3.23;;;;;;;;;;5054114;28;20783;-75
2021/03/11 13:27:44;;;;;;;19.60;3.10;;;;;;;;;;5072766;28;20407;-77
2021/03/11 13:30:10;;;;;;;13.60;2.77;;;;;;;;;;5072710;28;20460;-76
2021/03/11 13:32:37;;;;;;;10.80;1.83;;;;;;;;;;5072889;28;20438;-77
2021/03/11 13:35:03;;;;;;;11.50;2.40;;;;;;;;;;5072316;28;20509;-76
2021/03/11 13:37:29;;;;;;;21.43;3.47;;;;;;;;;;5072555;28;20457;-76
2021/03/11 13:39:55;;;;;;;12.33;2.20;;;;;;;;;;5054790;28;20466;-76
2021/03/11 13:42:22;;;;;;;14.40;2.27;;;;;;;;;;5076851;28;20538;-77
2021/03/11 13:44:48;;;;;;;16.70;2.00;;;;;;;;;;5075917;28;20435;-76
2021/03/11 13:47:15;;;;;;;25.00;2.80;;;;;;;;;;5076284;28;20482;-77
2021/03/11 13:49:41;;;;;;;33.03;4.60;;;;;;;;;;5076164;28;20415;-76
2021/03/11 13:52:08;;;;;;;19.17;2.83;;;;;;;;;;5075864;28;20770;-76
2021/03/11 13:54:34;;;;;;;28.57;3.93;;;;;;;;;;5075526;28;20427;-75
2021/03/11 13:57:00;;;;;;;42.70;5.17;;;;;;;;;;5057910;28;20418;-76
2021/03/11 13:59:26;;;;;;;19.10;2.70;;;;;;;;;;5058762;28;20488;-76
2021/03/11 14:01:52;;;;;;;19.43;2.90;;;;;;;;;;5075914;28;20729;-77
2021/03/11 14:04:18;;;;;;;14.33;1.93;;;;;;;;;;5075044;28;20426;-77
2021/03/11 14:06:44;;;;;;;38.53;4.10;;;;;;;;;;5075694;28;20476;-78
2021/03/11 14:09:11;;;;;;;21.53;3.70;;;;;;;;;;5057781;28;20438;-77
2021/03/11 14:11:37;;;;;;;27.03;3.90;;;;;;;;;;5075307;28;20422;-76
2021/03/11 14:14:03;;;;;;;39.73;4.30;;;;;;;;;;5074075;28;20445;-75
2021/03/11 14:16:29;;;;;;;20.87;2.43;;;;;;;;;;5075105;28;20510;-76
2021/03/11 14:18:55;;;;;;;43.57;5.83;;;;;;;;;;5057756;28;20453;-76
2021/03/11 14:21:21;;;;;;;17.77;3.10;;;;;;;;;;5057497;28;20782;-77